Weather History for Sand Point, AK

Change the Weather History Date:

Thursday, January 30, 2014

  Actual Average Record
Temperature  
Mean Temperature 40 °F -  
Max Temperature 42 °F 32 °F 46 °F (2007)
Min Temperature 39 °F 26 °F 10 °F (1989)
Degree Days  
Heating Degree Days 24    
Moisture  
Dew Point 37 °F    
Average Humidity 88    
Maximum Humidity 100    
Minimum Humidity 76    
Precipitation  
Precipitation 0.00 in - - ()
Sea Level Pressure  
Sea Level Pressure 29.88 in    
Wind  
Wind Speed 11 mph (SSE)    
Max Wind Speed 18 mph    
Max Gust Speed 24 mph    
Visibility 10 miles    
Events      
Averages and records for this station are not official NWS values.
T = Trace of Precipitation, MM = Missing Value Source: NWS Daily Summary

Daily Weather History Graph

Daily Weather History Graph

Search for Another Location

Airport:

Trip Planner

Search our weather history database for the weather conditions in past years. The results will help you decide how hot, cold, wet, or windy it might be!

Date:

Astronomy

Jan. 30, 2014 Rise Set
Actual Time 9:37 AM AKST 6:14 PM AKST
Civil Twilight 8:56 AM AKST 6:55 PM AKST
Nautical Twilight 8:12 AM AKST 7:39 PM AKST
Astronomical Twilight 7:29 AM AKST 8:22 PM AKST
Moon 9:02 AM AKST (1/30) 6:53 PM AKST (1/30)
Length of Visible Light 9h 58m
Length of Day
8h 37m
Waning Crescent, 0% of the Moon is Illuminated
Jan 30
Waning Crescent
Jan 30
New
Feb 6
First Quarter
Feb 14
Full
Feb 22
Last Quarter

Hourly Weather History & Observations

Time (AKST) Temp. Windchill Dew Point Humidity Pressure Visibility Wind Dir Wind Speed Gust Speed Precip Events Conditions
12:16 AM 41.0 °F 33.1 °F 39.2 °F 93% 29.73 in 10.0 mi SSE 15.0 mph 24.2 mph N/A   Overcast
12:36 AM 41.0 °F 33.5 °F 39.2 °F 93% 29.72 in 10.0 mi SSE 13.8 mph 20.7 mph N/A   Overcast
12:56 AM 41.0 °F 34.7 °F 39.2 °F 93% 29.73 in 10.0 mi SSE 10.4 mph 23.0 mph N/A   Scattered Clouds
1:16 AM 41.0 °F 34.7 °F 39.2 °F 93% 29.73 in 10.0 mi SSE 10.4 mph 18.4 mph N/A   Clear
1:36 AM 41.0 °F 39.0 °F 39.2 °F 93% 29.74 in 10.0 mi ESE 3.5 mph - N/A   Clear
1:56 AM 39.2 °F 35.9 °F 37.4 °F 93% 29.75 in 10.0 mi SE 4.6 mph - N/A   Clear
2:16 AM 41.0 °F 35.8 °F 37.4 °F 87% 29.75 in 10.0 mi SE 8.1 mph - N/A   Partly Cloudy
2:36 AM 41.0 °F 38.0 °F 37.4 °F 87% 29.75 in 10.0 mi SSE 4.6 mph - N/A   Partly Cloudy
2:56 AM 41.0 °F 36.4 °F 37.4 °F 87% 29.76 in 10.0 mi SE 6.9 mph - N/A   Mostly Cloudy
3:16 AM 41.0 °F 33.9 °F 37.4 °F 87% 29.76 in 10.0 mi SSE 12.7 mph - N/A   Overcast
3:36 AM 42.8 °F 36.6 °F 37.4 °F 81% 29.76 in 10.0 mi SSE 11.5 mph 19.6 mph N/A   Overcast
3:56 AM 42.8 °F 37.5 °F 35.6 °F 76% 29.77 in 10.0 mi SSE 9.2 mph 18.4 mph N/A   Overcast
4:16 AM 41.0 °F 37.1 °F 37.4 °F 87% 29.77 in 10.0 mi SSE 5.8 mph - N/A   Overcast
4:36 AM 41.0 °F 36.4 °F 35.6 °F 81% 29.77 in 10.0 mi SSE 6.9 mph - N/A   Mostly Cloudy
4:56 AM 41.0 °F 34.7 °F 35.6 °F 81% 29.78 in 10.0 mi SSE 10.4 mph - N/A   Mostly Cloudy
5:16 AM 41.0 °F 35.2 °F 35.6 °F 81% 29.78 in 10.0 mi SSE 9.2 mph - N/A   Mostly Cloudy
5:36 AM 41.0 °F 34.7 °F 37.4 °F 87% 29.79 in 10.0 mi SSE 10.4 mph - N/A   Mostly Cloudy
5:56 AM 41.0 °F 33.9 °F 35.6 °F 81% 29.79 in 10.0 mi SSE 12.7 mph 19.6 mph N/A   Overcast
6:16 AM 41.0 °F 33.9 °F 35.6 °F 81% 29.80 in 10.0 mi SSE 12.7 mph 17.3 mph N/A   Overcast
6:36 AM 41.0 °F 32.5 °F 35.6 °F 81% 29.80 in 10.0 mi SSE 17.3 mph 24.2 mph N/A   Overcast
6:56 AM 41.0 °F 33.9 °F 35.6 °F 81% 29.81 in 10.0 mi SSE 12.7 mph 20.7 mph N/A   Overcast
7:16 AM 41.0 °F 34.7 °F 35.6 °F 81% 29.81 in 10.0 mi SSE 10.4 mph 16.1 mph N/A   Overcast
7:36 AM 41.0 °F 34.7 °F 35.6 °F 81% 29.81 in 10.0 mi SSE 10.4 mph 17.3 mph N/A   Overcast
7:56 AM 41.0 °F 35.2 °F 35.6 °F 81% 29.82 in 10.0 mi SE 9.2 mph 17.3 mph N/A   Overcast
8:16 AM 41.0 °F 35.8 °F 35.6 °F 81% 29.82 in 10.0 mi SSE 8.1 mph - N/A   Overcast
8:36 AM 41.0 °F 35.2 °F 35.6 °F 81% 29.83 in 10.0 mi SE 9.2 mph 16.1 mph N/A   Overcast
8:56 AM 41.0 °F 34.3 °F 35.6 °F 81% 29.83 in 10.0 mi SE 11.5 mph - N/A   Overcast
9:16 AM 41.0 °F 34.7 °F 35.6 °F 81% 29.84 in 10.0 mi SSE 10.4 mph 21.9 mph N/A   Overcast
9:36 AM 41.0 °F 34.3 °F 35.6 °F 81% 29.85 in 10.0 mi SSE 11.5 mph 17.3 mph N/A   Overcast
9:56 AM 41.0 °F 34.3 °F 35.6 °F 81% 29.85 in 10.0 mi SSE 11.5 mph - N/A   Overcast
10:16 AM 41.0 °F 36.4 °F 35.6 °F 81% 29.86 in 10.0 mi SSE 6.9 mph - N/A   Overcast
10:36 AM 41.0 °F 33.9 °F 35.6 °F 81% 29.87 in 10.0 mi SSE 12.7 mph 21.9 mph N/A   Mostly Cloudy
10:56 AM 41.0 °F 34.7 °F 37.4 °F 87% 29.87 in 10.0 mi SE 10.4 mph 16.1 mph N/A   Mostly Cloudy
11:16 AM 41.0 °F 34.3 °F 35.6 °F 81% 29.88 in 10.0 mi SSE 11.5 mph 16.1 mph N/A   Mostly Cloudy
11:36 AM 41.0 °F 35.2 °F 35.6 °F 81% 29.88 in 10.0 mi SSE 9.2 mph 16.1 mph N/A   Overcast
11:56 AM 41.0 °F 34.3 °F 35.6 °F 81% 29.89 in 10.0 mi SSE 11.5 mph 16.1 mph N/A   Overcast
12:16 PM 41.0 °F 35.2 °F 37.4 °F 87% 29.89 in 10.0 mi SSE 9.2 mph 16.1 mph N/A   Overcast
12:36 PM 42.8 °F 37.0 °F 37.4 °F 81% 29.89 in 10.0 mi SSE 10.4 mph 19.6 mph N/A   Overcast
12:56 PM 42.8 °F 37.5 °F 37.4 °F 81% 29.89 in 10.0 mi SSE 9.2 mph - N/A   Overcast
1:16 PM 42.8 °F 37.0 °F 37.4 °F 81% 29.89 in 10.0 mi SSE 10.4 mph - N/A   Overcast
1:36 PM 42.8 °F 36.6 °F 37.4 °F 81% 29.89 in 10.0 mi SSE 11.5 mph - N/A   Overcast
1:56 PM 42.8 °F 36.6 °F 37.4 °F 81% 29.89 in 10.0 mi SSE 11.5 mph 17.3 mph N/A   Mostly Cloudy
2:16 PM 42.8 °F 37.0 °F 37.4 °F 81% 29.89 in 10.0 mi SSE 10.4 mph 18.4 mph N/A   Mostly Cloudy
2:36 PM 42.8 °F 36.2 °F 37.4 °F 81% 29.89 in 10.0 mi SSE 12.7 mph 19.6 mph N/A   Mostly Cloudy
2:56 PM 41.0 °F 32.5 °F 37.4 °F 87% 29.89 in 10.0 mi SSE 17.3 mph 23.0 mph N/A   Mostly Cloudy
3:16 PM 41.0 °F 33.5 °F 37.4 °F 87% 29.90 in 10.0 mi SSE 13.8 mph 18.4 mph N/A   Mostly Cloudy
3:36 PM 41.0 °F 33.5 °F 37.4 °F 87% 29.90 in 10.0 mi SSE 13.8 mph 21.9 mph N/A   Mostly Cloudy
3:56 PM 41.0 °F 33.5 °F 37.4 °F 87% 29.90 in 10.0 mi SSE 13.8 mph 21.9 mph N/A   Mostly Cloudy
4:16 PM 41.0 °F 32.8 °F 37.4 °F 87% 29.91 in 10.0 mi SSE 16.1 mph 23.0 mph N/A   Mostly Cloudy
4:36 PM 41.0 °F 32.8 °F 37.4 °F 87% 29.92 in 10.0 mi SSE 16.1 mph 23.0 mph N/A   Mostly Cloudy
4:56 PM 41.0 °F 32.8 °F 37.4 °F 87% 29.93 in 10.0 mi SSE 16.1 mph 23.0 mph N/A   Mostly Cloudy
5:16 PM 41.0 °F 33.1 °F 37.4 °F 87% 29.93 in 10.0 mi SSE 15.0 mph 21.9 mph N/A   Mostly Cloudy
5:36 PM 41.0 °F 33.1 °F 37.4 °F 87% 29.94 in 10.0 mi SSE 15.0 mph 23.0 mph N/A   Mostly Cloudy
5:56 PM 41.0 °F 33.1 °F 37.4 °F 87% 29.94 in 10.0 mi SSE 15.0 mph 19.6 mph N/A   Overcast
6:16 PM 39.2 °F 30.8 °F 39.2 °F 100% 29.95 in 5.0 mi SSE 15.0 mph - N/A   Overcast
6:36 PM 39.2 °F 31.6 °F 37.4 °F 93% 29.96 in 6.0 mi SSE 12.7 mph 20.7 mph N/A   Overcast
6:56 PM 39.2 °F 29.8 °F 39.2 °F 100% 29.96 in 7.0 mi SSE 18.4 mph 24.2 mph N/A   Overcast
7:16 PM 39.2 °F 31.2 °F 39.2 °F 100% 29.97 in 7.0 mi SSE 13.8 mph 19.6 mph N/A   Overcast
7:36 PM 39.2 °F 32.0 °F 39.2 °F 100% 29.97 in 7.0 mi SSE 11.5 mph - N/A   Overcast
7:56 PM 39.2 °F 32.5 °F 39.2 °F 100% 29.97 in 7.0 mi SSE 10.4 mph - N/A   Overcast
8:16 PM 39.2 °F 32.0 °F 39.2 °F 100% 29.98 in 5.0 mi SSE 11.5 mph 17.3 mph N/A   Overcast
8:36 PM 39.2 °F 31.6 °F 39.2 °F 100% 29.99 in 7.0 mi SSE 12.7 mph 16.1 mph N/A   Overcast
8:56 PM 39.2 °F 32.0 °F 37.4 °F 93% 30.00 in 10.0 mi SSE 11.5 mph 18.4 mph N/A   Overcast
9:16 PM 39.2 °F 33.6 °F 37.4 °F 93% 30.00 in 7.0 mi SSE 8.1 mph - N/A   Overcast
9:36 PM 39.2 °F 32.0 °F 39.2 °F 100% 30.01 in 9.0 mi SSE 11.5 mph 16.1 mph N/A   Overcast
9:56 PM 39.2 °F 32.0 °F 37.4 °F 93% 30.02 in 10.0 mi South 11.5 mph - N/A   Overcast
10:16 PM 39.2 °F 32.0 °F 39.2 °F 100% 30.02 in 5.0 mi South 11.5 mph - N/A   Overcast
10:36 PM 39.2 °F 33.0 °F 39.2 °F 100% 30.03 in 10.0 mi South 9.2 mph - N/A   Overcast
10:56 PM 39.2 °F 31.6 °F 39.2 °F 100% 30.04 in 10.0 mi South 12.7 mph - N/A   Overcast
11:16 PM 39.2 °F 32.5 °F 39.2 °F 100% 30.04 in 10.0 mi South 10.4 mph - N/A   Overcast
11:36 PM 39.2 °F 33.6 °F 39.2 °F 100% 30.05 in 10.0 mi SSE 8.1 mph - N/A   Mostly Cloudy
11:56 PM 39.2 °F 34.2 °F 39.2 °F 100% 30.05 in 9.0 mi SSE 6.9 mph - N/A   Overcast